sensor_id;sensor_type;location;lat;lon;timestamp;pressure;altitude;pressure_sealevel;temperature;humidity
10464;BME280;5279;42.048;24.638;2024-02-21T00:02:07;98178.63;;;7.04;100.00
10464;BME280;5279;42.048;24.638;2024-02-21T00:04:33;98187.56;;;7.14;100.00
10464;BME280;5279;42.048;24.638;2024-02-21T00:07:00;98183.75;;;7.18;100.00
10464;BME280;5279;42.048;24.638;2024-02-21T00:09:27;98186.69;;;7.26;100.00
10464;BME280;5279;42.048;24.638;2024-02-21T00:11:54;98178.03;;;7.24;100.00
10464;BME280;5279;42.048;24.638;2024-02-21T00:14:20;98191.59;;;7.07;100.00
10464;BME280;5279;42.048;24.638;2024-02-21T00:16:47;98192.88;;;7.01;100.00
10464;BME280;5279;42.048;24.638;2024-02-21T00:19:15;98188.22;;;7.05;100.00
10464;BME280;5279;42.048;24.638;2024-02-21T00:21:42;98186.09;;;7.10;100.00
10464;BME280;5279;42.048;24.638;2024-02-21T00:24:09;98182.53;;;7.11;100.00
10464;BME280;5279;42.048;24.638;2024-02-21T00:26:36;98175.63;;;7.21;100.00
10464;BME280;5279;42.048;24.638;2024-02-21T00:29:02;98179.84;;;7.24;100.00
10464;BME280;5279;42.048;24.638;2024-02-21T00:31:29;98169.63;;;7.19;100.00
10464;BME280;5279;42.048;24.638;2024-02-21T00:33:56;98170.47;;;7.20;100.00
10464;BME280;5279;42.048;24.638;2024-02-21T00:36:24;98176.47;;;7.22;100.00
10464;BME280;5279;42.048;24.638;2024-02-21T00:38:51;98168.34;;;7.25;100.00
10464;BME280;5279;42.048;24.638;2024-02-21T00:41:17;98168.25;;;7.26;100.00
10464;BME280;5279;42.048;24.638;2024-02-21T00:43:44;98170.22;;;7.35;100.00
10464;BME280;5279;42.048;24.638;2024-02-21T00:46:12;98157.28;;;7.32;100.00
10464;BME280;5279;42.048;24.638;2024-02-21T00:48:39;98159.59;;;7.24;100.00
10464;BME280;5279;42.048;24.638;2024-02-21T00:51:05;98173.00;;;7.21;100.00
10464;BME280;5279;42.048;24.638;2024-02-21T00:53:33;98157.53;;;7.17;100.00
10464;BME280;5279;42.048;24.638;2024-02-21T00:56:04;98148.94;;;7.02;100.00
10464;BME280;5279;42.048;24.638;2024-02-21T00:58:31;98161.25;;;7.01;100.00
10464;BME280;5279;42.048;24.638;2024-02-21T01:00:57;98144.91;;;6.96;100.00
10464;BME280;5279;42.048;24.638;2024-02-21T01:03:24;98157.47;;;6.93;100.00
10464;BME280;5279;42.048;24.638;2024-02-21T01:05:51;98147.53;;;6.96;100.00
10464;BME280;5279;42.048;24.638;2024-02-21T01:08:18;98143.34;;;6.94;100.00
10464;BME280;5279;42.048;24.638;2024-02-21T01:10:46;98145.03;;;6.95;100.00
10464;BME280;5279;42.048;24.638;2024-02-21T01:13:13;98136.19;;;6.96;100.00
10464;BME280;5279;42.048;24.638;2024-02-21T01:15:39;98135.75;;;7.02;100.00
10464;BME280;5279;42.048;24.638;2024-02-21T01:18:06;98135.53;;;7.05;100.00
10464;BME280;5279;42.048;24.638;2024-02-21T01:20:33;98138.44;;;7.13;100.00
10464;BME280;5279;42.048;24.638;2024-02-21T01:22:59;98131.72;;;7.09;100.00
10464;BME280;5279;42.048;24.638;2024-02-21T01:25:26;98136.09;;;7.21;100.00
10464;BME280;5279;42.048;24.638;2024-02-21T01:27:54;98131.72;;;7.33;100.00
10464;BME280;5279;42.048;24.638;2024-02-21T01:30:21;98127.19;;;7.35;100.00
10464;BME280;5279;42.048;24.638;2024-02-21T01:32:48;98142.44;;;7.42;100.00
10464;BME280;5279;42.048;24.638;2024-02-21T01:35:15;98132.66;;;7.44;100.00
10464;BME280;5279;42.048;24.638;2024-02-21T01:37:42;98127.97;;;7.48;100.00
10464;BME280;5279;42.048;24.638;2024-02-21T01:40:10;98123.75;;;7.45;100.00
10464;BME280;5279;42.048;24.638;2024-02-21T01:42:38;98133.59;;;7.43;100.00
10464;BME280;5279;42.048;24.638;2024-02-21T01:45:07;98134.09;;;7.48;100.00
10464;BME280;5279;42.048;24.638;2024-02-21T01:47:34;98132.66;;;7.44;100.00
10464;BME280;5279;42.048;24.638;2024-02-21T01:50:01;98125.56;;;7.45;100.00
10464;BME280;5279;42.048;24.638;2024-02-21T01:52:28;98129.34;;;7.53;100.00
10464;BME280;5279;42.048;24.638;2024-02-21T01:54:56;98126.06;;;7.50;100.00
10464;BME280;5279;42.048;24.638;2024-02-21T01:57:24;98116.59;;;7.47;100.00
10464;BME280;5279;42.048;24.638;2024-02-21T01:59:51;98121.66;;;7.50;100.00
10464;BME280;5279;42.048;24.638;2024-02-21T02:02:20;98121.03;;;7.47;100.00
10464;BME280;5279;42.048;24.638;2024-02-21T02:04:47;98124.38;;;7.49;100.00
10464;BME280;5279;42.048;24.638;2024-02-21T02:07:14;98122.56;;;7.38;100.00
10464;BME280;5279;42.048;24.638;2024-02-21T02:09:41;98114.97;;;7.34;100.00
10464;BME280;5279;42.048;24.638;2024-02-21T02:12:08;98127.06;;;7.36;100.00
10464;BME280;5279;42.048;24.638;2024-02-21T02:14:35;98118.09;;;7.39;100.00
10464;BME280;5279;42.048;24.638;2024-02-21T02:17:02;98111.38;;;7.35;100.00
10464;BME280;5279;42.048;24.638;2024-02-21T02:19:30;98109.28;;;7.27;100.00
10464;BME280;5279;42.048;24.638;2024-02-21T02:22:02;98121.53;;;7.28;100.00
10464;BME280;5279;42.048;24.638;2024-02-21T02:24:35;98112.91;;;7.26;100.00
10464;BME280;5279;42.048;24.638;2024-02-21T02:27:02;98112.91;;;7.26;100.00
10464;BME280;5279;42.048;24.638;2024-02-21T02:29:31;98111.44;;;7.22;100.00
10464;BME280;5279;42.048;24.638;2024-02-21T02:31:58;98105.13;;;7.12;100.00
10464;BME280;5279;42.048;24.638;2024-02-21T02:34:25;98111.25;;;7.12;100.00
10464;BME280;5279;42.048;24.638;2024-02-21T02:36:52;98119.28;;;7.11;100.00
10464;BME280;5279;42.048;24.638;2024-02-21T02:39:20;98112.09;;;7.13;100.00
10464;BME280;5279;42.048;24.638;2024-02-21T02:41:48;98116.75;;;7.09;100.00
10464;BME280;5279;42.048;24.638;2024-02-21T02:44:14;98104.34;;;6.99;100.00
10464;BME280;5279;42.048;24.638;2024-02-21T02:46:41;98110.84;;;7.06;100.00
10464;BME280;5279;42.048;24.638;2024-02-21T02:49:08;98112.97;;;7.01;100.00
10464;BME280;5279;42.048;24.638;2024-02-21T02:51:35;98114.22;;;7.08;100.00
10464;BME280;5279;42.048;24.638;2024-02-21T02:54:02;98109.56;;;7.11;100.00
10464;BME280;5279;42.048;24.638;2024-02-21T02:56:29;98111.75;;;7.18;100.00
10464;BME280;5279;42.048;24.638;2024-02-21T02:58:57;98106.59;;;7.16;100.00
10464;BME280;5279;42.048;24.638;2024-02-21T03:01:24;98112.31;;;7.10;100.00
10464;BME280;5279;42.048;24.638;2024-02-21T03:03:51;98114.94;;;7.10;100.00
10464;BME280;5279;42.048;24.638;2024-02-21T03:06:18;98106.81;;;7.13;100.00
10464;BME280;5279;42.048;24.638;2024-02-21T03:08:44;98113.25;;;7.09;100.00
10464;BME280;5279;42.048;24.638;2024-02-21T03:11:11;98108.38;;;6.92;100.00
10464;BME280;5279;42.048;24.638;2024-02-21T03:13:38;98107.22;;;6.96;100.00
10464;BME280;5279;42.048;24.638;2024-02-21T03:16:06;98111.22;;;6.89;100.00
10464;BME280;5279;42.048;24.638;2024-02-21T03:18:33;98106.38;;;6.83;100.00
10464;BME280;5279;42.048;24.638;2024-02-21T03:21:01;98116.00;;;6.84;100.00
10464;BME280;5279;42.048;24.638;2024-02-21T03:23:27;98114.59;;;6.78;100.00
10464;BME280;5279;42.048;24.638;2024-02-21T03:25:54;98106.81;;;6.77;100.00
10464;BME280;5279;42.048;24.638;2024-02-21T03:28:21;98109.47;;;6.77;100.00
10464;BME280;5279;42.048;24.638;2024-02-21T03:30:47;98105.13;;;6.76;100.00
10464;BME280;5279;42.048;24.638;2024-02-21T03:33:16;98105.13;;;6.76;100.00
10464;BME280;5279;42.048;24.638;2024-02-21T03:35:42;98087.47;;;6.65;100.00
10464;BME280;5279;42.048;24.638;2024-02-21T03:38:09;98105.88;;;6.78;100.00
10464;BME280;5279;42.048;24.638;2024-02-21T03:40:36;98096.22;;;6.66;100.00
10464;BME280;5279;42.048;24.638;2024-02-21T03:43:03;98081.59;;;6.62;100.00
10464;BME280;5279;42.048;24.638;2024-02-21T03:45:29;98087.34;;;6.67;100.00
10464;BME280;5279;42.048;24.638;2024-02-21T03:47:56;98086.19;;;6.71;100.00
10464;BME280;5279;42.048;24.638;2024-02-21T03:50:26;98093.47;;;6.54;100.00
10464;BME280;5279;42.048;24.638;2024-02-21T03:52:53;98084.00;;;6.65;100.00
10464;BME280;5279;42.048;24.638;2024-02-21T03:55:19;98097.56;;;6.71;100.00
10464;BME280;5279;42.048;24.638;2024-02-21T03:57:47;98086.50;;;6.66;100.00
10464;BME280;5279;42.048;24.638;2024-02-21T04:00:14;98096.06;;;6.80;100.00
10464;BME280;5279;42.048;24.638;2024-02-21T04:02:41;98100.34;;;6.93;100.00
10464;BME280;5279;42.048;24.638;2024-02-21T04:05:08;98093.59;;;7.02;100.00
10464;BME280;5279;42.048;24.638;2024-02-21T04:07:37;98099.88;;;7.12;100.00
10464;BME280;5279;42.048;24.638;2024-02-21T04:10:05;98107.94;;;6.98;100.00
10464;BME280;5279;42.048;24.638;2024-02-21T04:12:32;98118.69;;;6.95;100.00
10464;BME280;5279;42.048;24.638;2024-02-21T04:14:58;98108.66;;;7.00;100.00
10464;BME280;5279;42.048;24.638;2024-02-21T04:17:25;98107.22;;;6.96;100.00
10464;BME280;5279;42.048;24.638;2024-02-21T04:20:01;98108.38;;;6.92;100.00
10464;BME280;5279;42.048;24.638;2024-02-21T04:22:30;98112.13;;;7.00;100.00
10464;BME280;5279;42.048;24.638;2024-02-21T04:24:59;98112.53;;;7.07;100.00
10464;BME280;5279;42.048;24.638;2024-02-21T04:27:26;98112.72;;;7.17;100.00
10464;BME280;5279;42.048;24.638;2024-02-21T04:29:53;98106.47;;;7.18;100.00
10464;BME280;5279;42.048;24.638;2024-02-21T04:32:20;98114.06;;;7.22;100.00
10464;BME280;5279;42.048;24.638;2024-02-21T04:34:46;98105.75;;;7.15;100.00
10464;BME280;5279;42.048;24.638;2024-02-21T04:37:13;98111.47;;;7.09;100.00
10464;BME280;5279;42.048;24.638;2024-02-21T04:39:40;98111.25;;;7.12;100.00
10464;BME280;5279;42.048;24.638;2024-02-21T04:42:08;98116.53;;;7.12;100.00
10464;BME280;5279;42.048;24.638;2024-02-21T04:44:34;98112.09;;;7.13;100.00
10464;BME280;5279;42.048;24.638;2024-02-21T04:47:01;98118.22;;;7.13;100.00
10464;BME280;5279;42.048;24.638;2024-02-21T04:49:28;98116.31;;;7.15;100.00
10464;BME280;5279;42.048;24.638;2024-02-21T04:51:55;98122.41;;;7.16;100.00
10464;BME280;5279;42.048;24.638;2024-02-21T04:54:22;98123.94;;;7.07;100.00
10464;BME280;5279;42.048;24.638;2024-02-21T04:56:49;98119.28;;;7.11;100.00
10464;BME280;5279;42.048;24.638;2024-02-21T04:59:18;98118.31;;;7.12;100.00
10464;BME280;5279;42.048;24.638;2024-02-21T05:01:45;98115.56;;;7.13;100.00
10464;BME280;5279;42.048;24.638;2024-02-21T05:04:11;98121.16;;;7.09;100.00
10464;BME280;5279;42.048;24.638;2024-02-21T05:06:38;98128.19;;;7.21;100.00
10464;BME280;5279;42.048;24.638;2024-02-21T05:09:05;98131.44;;;7.25;100.00
10464;BME280;5279;42.048;24.638;2024-02-21T05:11:32;98126.53;;;7.20;100.00
10464;BME280;5279;42.048;24.638;2024-02-21T05:13:59;98148.09;;;7.25;100.00
10464;BME280;5279;42.048;24.638;2024-02-21T05:16:27;98130.31;;;7.16;100.00
10464;BME280;5279;42.048;24.638;2024-02-21T05:18:54;98145.41;;;7.14;100.00
10464;BME280;5279;42.048;24.638;2024-02-21T05:21:22;98148.56;;;7.19;100.00
10464;BME280;5279;42.048;24.638;2024-02-21T05:23:49;98143.28;;;7.19;100.00
10464;BME280;5279;42.048;24.638;2024-02-21T05:26:20;98147.00;;;7.04;100.00
10464;BME280;5279;42.048;24.638;2024-02-21T05:28:47;98144.59;;;7.01;100.00
10464;BME280;5279;42.048;24.638;2024-02-21T05:31:14;98151.13;;;7.08;100.00
10464;BME280;5279;42.048;24.638;2024-02-21T05:33:43;98159.31;;;7.16;100.00
10464;BME280;5279;42.048;24.638;2024-02-21T05:36:10;98152.13;;;7.18;100.00
10464;BME280;5279;42.048;24.638;2024-02-21T05:38:36;98156.09;;;7.24;100.00
10464;BME280;5279;42.048;24.638;2024-02-21T05:41:03;98154.53;;;7.21;100.00
10464;BME280;5279;42.048;24.638;2024-02-21T05:43:36;98156.00;;;7.25;100.00
10464;BME280;5279;42.048;24.638;2024-02-21T05:46:03;98164.78;;;7.26;100.00
10464;BME280;5279;42.048;24.638;2024-02-21T05:48:30;98166.28;;;7.17;100.00
10464;BME280;5279;42.048;24.638;2024-02-21T05:51:01;98168.19;;;7.02;100.00
10464;BME280;5279;42.048;24.638;2024-02-21T05:53:28;98167.09;;;7.18;100.00
10464;BME280;5279;42.048;24.638;2024-02-21T05:55:54;98164.59;;;7.16;100.00
10464;BME280;5279;42.048;24.638;2024-02-21T05:58:21;98168.16;;;7.15;100.00
10464;BME280;5279;42.048;24.638;2024-02-21T06:00:48;98178.84;;;7.37;100.00
10464;BME280;5279;42.048;24.638;2024-02-21T06:03:15;98183.25;;;7.49;100.00
10464;BME280;5279;42.048;24.638;2024-02-21T06:05:41;98187.00;;;7.58;100.00
10464;BME280;5279;42.048;24.638;2024-02-21T06:08:10;98190.44;;;7.71;100.00
10464;BME280;5279;42.048;24.638;2024-02-21T06:10:36;98187.66;;;7.72;100.00
10464;BME280;5279;42.048;24.638;2024-02-21T06:13:03;98201.59;;;7.75;100.00
10464;BME280;5279;42.048;24.638;2024-02-21T06:15:30;98198.28;;;7.84;100.00
10464;BME280;5279;42.048;24.638;2024-02-21T06:17:57;98192.00;;;7.74;100.00
10464;BME280;5279;42.048;24.638;2024-02-21T06:20:23;98195.81;;;7.69;100.00
10464;BME280;5279;42.048;24.638;2024-02-21T06:22:50;98200.00;;;7.72;100.00
10464;BME280;5279;42.048;24.638;2024-02-21T06:25:18;98211.84;;;7.66;100.00
10464;BME280;5279;42.048;24.638;2024-02-21T06:27:45;98203.84;;;7.44;100.00
10464;BME280;5279;42.048;24.638;2024-02-21T06:30:12;98203.97;;;7.30;100.00
10464;BME280;5279;42.048;24.638;2024-02-21T06:32:39;98216.84;;;7.22;100.00
10464;BME280;5279;42.048;24.638;2024-02-21T06:35:06;98221.09;;;7.12;100.00
10464;BME280;5279;42.048;24.638;2024-02-21T06:37:33;98225.69;;;7.21;100.00
10464;BME280;5279;42.048;24.638;2024-02-21T06:40:00;98229.53;;;7.17;100.00
10464;BME280;5279;42.048;24.638;2024-02-21T06:42:28;98219.50;;;7.22;100.00
10464;BME280;5279;42.048;24.638;2024-02-21T06:44:55;98224.19;;;7.30;100.00
10464;BME280;5279;42.048;24.638;2024-02-21T06:47:21;98225.06;;;7.30;100.00
10464;BME280;5279;42.048;24.638;2024-02-21T06:49:49;98221.47;;;7.31;100.00
10464;BME280;5279;42.048;24.638;2024-02-21T06:52:17;98215.09;;;7.46;100.00
10464;BME280;5279;42.048;24.638;2024-02-21T06:54:45;98220.78;;;7.53;100.00
10464;BME280;5279;42.048;24.638;2024-02-21T06:57:12;98214.88;;;7.49;100.00
10464;BME280;5279;42.048;24.638;2024-02-21T06:59:41;98222.34;;;7.55;100.00
10464;BME280;5279;42.048;24.638;2024-02-21T07:02:08;98221.78;;;7.63;100.00
10464;BME280;5279;42.048;24.638;2024-02-21T07:04:44;98219.03;;;7.64;100.00
10464;BME280;5279;42.048;24.638;2024-02-21T07:07:10;98221.97;;;7.72;100.00
10464;BME280;5279;42.048;24.638;2024-02-21T07:09:38;98218.16;;;7.77;100.00
10464;BME280;5279;42.048;24.638;2024-02-21T07:12:05;98215.78;;;7.85;100.00
10464;BME280;5279;42.048;24.638;2024-02-21T07:14:32;98213.22;;;7.96;100.00
10464;BME280;5279;42.048;24.638;2024-02-21T07:17:00;98212.38;;;7.95;100.00
10464;BME280;5279;42.048;24.638;2024-02-21T07:19:27;98229.88;;;8.20;100.00
10464;BME280;5279;42.048;24.638;2024-02-21T07:21:54;98214.09;;;8.31;100.00
10464;BME280;5279;42.048;24.638;2024-02-21T07:24:22;98223.72;;;8.43;100.00
10464;BME280;5279;42.048;24.638;2024-02-21T07:26:48;98220.16;;;8.55;100.00
10464;BME280;5279;42.048;24.638;2024-02-21T07:29:15;98227.38;;;8.75;100.00
10464;BME280;5279;42.048;24.638;2024-02-21T07:31:42;98219.00;;;8.93;100.00
10464;BME280;5279;42.048;24.638;2024-02-21T07:34:10;98224.06;;;9.29;100.00
10464;BME280;5279;42.048;24.638;2024-02-21T07:36:37;98223.78;;;9.54;99.30
10464;BME280;5279;42.048;24.638;2024-02-21T07:39:09;98225.09;;;10.03;93.94
10464;BME280;5279;42.048;24.638;2024-02-21T07:41:36;98230.06;;;10.28;79.13
10464;BME280;5279;42.048;24.638;2024-02-21T07:44:04;98219.97;;;10.54;76.17
10464;BME280;5279;42.048;24.638;2024-02-21T07:46:31;98228.53;;;10.87;75.54
10464;BME280;5279;42.048;24.638;2024-02-21T07:48:58;98226.22;;;11.04;77.27
10464;BME280;5279;42.048;24.638;2024-02-21T07:51:28;98226.69;;;11.09;72.49
10464;BME280;5279;42.048;24.638;2024-02-21T07:53:55;98230.53;;;10.95;68.59
10464;BME280;5279;42.048;24.638;2024-02-21T07:56:22;98239.81;;;11.10;68.66
10464;BME280;5279;42.048;24.638;2024-02-21T07:58:49;98244.44;;;10.87;65.57
10464;BME280;5279;42.048;24.638;2024-02-21T08:01:18;98233.47;;;10.71;67.39
10464;BME280;5279;42.048;24.638;2024-02-21T08:03:46;98232.28;;;10.43;69.61
10464;BME280;5279;42.048;24.638;2024-02-21T08:06:13;98235.44;;;10.17;68.13
10464;BME280;5279;42.048;24.638;2024-02-21T08:08:41;98239.97;;;10.26;68.64
10464;BME280;5279;42.048;24.638;2024-02-21T08:11:08;98230.41;;;10.34;69.48
10464;BME280;5279;42.048;24.638;2024-02-21T08:13:35;98238.50;;;10.33;69.90
10464;BME280;5279;42.048;24.638;2024-02-21T08:16:02;98241.59;;;10.38;67.03
10464;BME280;5279;42.048;24.638;2024-02-21T08:18:28;98233.38;;;10.20;67.57
10464;BME280;5279;42.048;24.638;2024-02-21T08:20:55;98239.44;;;10.32;69.01
10464;BME280;5279;42.048;24.638;2024-02-21T08:23:23;98237.25;;;10.37;67.75
10464;BME280;5279;42.048;24.638;2024-02-21T08:25:51;98234.31;;;10.51;66.45
10464;BME280;5279;42.048;24.638;2024-02-21T08:28:18;98233.03;;;10.66;67.80
10464;BME280;5279;42.048;24.638;2024-02-21T08:30:45;98236.13;;;11.02;66.90
10464;BME280;5279;42.048;24.638;2024-02-21T08:33:14;98235.19;;;11.33;64.94
10464;BME280;5279;42.048;24.638;2024-02-21T08:35:42;98234.16;;;11.64;62.32
10464;BME280;5279;42.048;24.638;2024-02-21T08:38:08;98237.72;;;11.84;59.99
10464;BME280;5279;42.048;24.638;2024-02-21T08:40:35;98229.22;;;11.99;59.15
10464;BME280;5279;42.048;24.638;2024-02-21T08:43:03;98232.91;;;12.37;60.86
10464;BME280;5279;42.048;24.638;2024-02-21T08:45:30;98236.72;;;12.90;56.81
10464;BME280;5279;42.048;24.638;2024-02-21T08:47:57;98239.22;;;13.11;55.20
10464;BME280;5279;42.048;24.638;2024-02-21T08:50:24;98239.50;;;12.98;52.98
10464;BME280;5279;42.048;24.638;2024-02-21T08:52:50;98240.13;;;12.73;55.43
10464;BME280;5279;42.048;24.638;2024-02-21T08:55:17;98238.56;;;12.80;54.31
10464;BME280;5279;42.048;24.638;2024-02-21T08:57:44;98243.03;;;12.89;55.00
10464;BME280;5279;42.048;24.638;2024-02-21T09:00:14;98239.47;;;13.18;55.16
10464;BME280;5279;42.048;24.638;2024-02-21T09:02:41;98258.28;;;12.97;51.37
10464;BME280;5279;42.048;24.638;2024-02-21T09:05:09;98250.09;;;12.52;54.15
10464;BME280;5279;42.048;24.638;2024-02-21T09:07:35;98242.66;;;12.55;56.08
10464;BME280;5279;42.048;24.638;2024-02-21T09:10:03;98248.00;;;12.27;53.88
10464;BME280;5279;42.048;24.638;2024-02-21T09:12:30;98247.16;;;12.36;55.07
10464;BME280;5279;42.048;24.638;2024-02-21T09:14:56;98246.88;;;12.39;53.63
10464;BME280;5279;42.048;24.638;2024-02-21T09:17:24;98241.22;;;12.90;53.00
10464;BME280;5279;42.048;24.638;2024-02-21T09:19:54;98245.03;;;13.34;53.09
10464;BME280;5279;42.048;24.638;2024-02-21T09:22:24;98238.03;;;13.87;49.58
10464;BME280;5279;42.048;24.638;2024-02-21T09:24:51;98237.84;;;14.69;47.56
10464;BME280;5279;42.048;24.638;2024-02-21T09:27:17;98228.16;;;15.71;47.24
10464;BME280;5279;42.048;24.638;2024-02-21T09:29:44;98219.59;;;16.33;44.74
10464;BME280;5279;42.048;24.638;2024-02-21T09:32:11;98216.88;;;17.22;40.87
10464;BME280;5279;42.048;24.638;2024-02-21T09:34:39;98219.81;;;17.52;38.71
10464;BME280;5279;42.048;24.638;2024-02-21T09:37:06;98217.94;;;16.97;38.92
10464;BME280;5279;42.048;24.638;2024-02-21T09:39:33;98216.47;;;17.58;39.01
10464;BME280;5279;42.048;24.638;2024-02-21T09:42:05;98223.00;;;17.94;37.75
10464;BME280;5279;42.048;24.638;2024-02-21T09:44:36;98210.44;;;17.56;38.89
10464;BME280;5279;42.048;24.638;2024-02-21T09:47:04;98212.38;;;19.14;35.69
10464;BME280;5279;42.048;24.638;2024-02-21T09:49:34;98220.69;;;19.56;34.53
10464;BME280;5279;42.048;24.638;2024-02-21T09:52:05;98205.06;;;18.71;35.76
10464;BME280;5279;42.048;24.638;2024-02-21T09:54:33;98210.44;;;19.23;34.77
10464;BME280;5279;42.048;24.638;2024-02-21T09:57:00;98199.06;;;19.64;34.47
10464;BME280;5279;42.048;24.638;2024-02-21T09:59:27;98203.53;;;20.08;34.17
10464;BME280;5279;42.048;24.638;2024-02-21T10:01:54;98197.41;;;19.63;33.42
10464;BME280;5279;42.048;24.638;2024-02-21T10:04:21;98178.66;;;19.55;34.92
10464;BME280;5279;42.048;24.638;2024-02-21T10:06:48;98188.66;;;19.91;34.49
10464;BME280;5279;42.048;24.638;2024-02-21T10:09:23;98181.00;;;20.09;34.44
10464;BME280;5279;42.048;24.638;2024-02-21T10:11:53;98192.56;;;19.74;33.96
10464;BME280;5279;42.048;24.638;2024-02-21T10:14:20;98185.31;;;19.01;34.03
10464;BME280;5279;42.048;24.638;2024-02-21T10:16:47;98183.28;;;19.32;33.43
10464;BME280;5279;42.048;24.638;2024-02-21T10:19:18;98176.03;;;19.77;33.35
10464;BME280;5279;42.048;24.638;2024-02-21T10:21:59;98158.47;;;21.08;31.79
10464;BME280;5279;42.048;24.638;2024-02-21T10:24:27;98170.09;;;21.36;30.85
10464;BME280;5279;42.048;24.638;2024-02-21T10:27:02;98152.78;;;20.68;30.37
10464;BME280;5279;42.048;24.638;2024-02-21T10:29:29;98150.00;;;20.34;31.83
10464;BME280;5279;42.048;24.638;2024-02-21T10:32:06;98142.88;;;19.70;32.93
10464;BME280;5279;42.048;24.638;2024-02-21T10:34:33;98140.59;;;19.88;32.27
10464;BME280;5279;42.048;24.638;2024-02-21T10:37:01;98133.84;;;21.11;31.98
10464;BME280;5279;42.048;24.638;2024-02-21T10:39:31;98125.03;;;20.96;31.46
10464;BME280;5279;42.048;24.638;2024-02-21T10:42:00;98122.47;;;21.56;30.73
10464;BME280;5279;42.048;24.638;2024-02-21T10:44:29;98118.38;;;22.60;29.30
10464;BME280;5279;42.048;24.638;2024-02-21T10:46:56;98118.50;;;23.37;28.67
10464;BME280;5279;42.048;24.638;2024-02-21T10:49:24;98112.66;;;21.90;29.03
10464;BME280;5279;42.048;24.638;2024-02-21T10:51:54;98099.59;;;21.39;29.92
10464;BME280;5279;42.048;24.638;2024-02-21T10:54:40;98122.44;;;20.32;30.88
10464;BME280;5279;42.048;24.638;2024-02-21T10:57:10;98100.16;;;19.31;33.29
10464;BME280;5279;42.048;24.638;2024-02-21T10:59:39;98100.59;;;21.04;32.79
10464;BME280;5279;42.048;24.638;2024-02-21T11:02:09;98082.84;;;22.76;29.16
10464;BME280;5279;42.048;24.638;2024-02-21T11:04:37;98084.66;;;23.66;26.49
10464;BME280;5279;42.048;24.638;2024-02-21T11:07:04;98083.97;;;23.39;25.97
10464;BME280;5279;42.048;24.638;2024-02-21T11:09:32;98091.88;;;23.28;26.71
10464;BME280;5279;42.048;24.638;2024-02-21T11:12:02;98084.47;;;22.31;28.27
10464;BME280;5279;42.048;24.638;2024-02-21T11:14:38;98074.31;;;22.79;28.10
10464;BME280;5279;42.048;24.638;2024-02-21T11:17:14;98076.16;;;24.01;25.90
10464;BME280;5279;42.048;24.638;2024-02-21T11:19:41;98070.78;;;25.36;25.69
10464;BME280;5279;42.048;24.638;2024-02-21T11:22:14;98071.72;;;25.96;24.76
10464;BME280;5279;42.048;24.638;2024-02-21T11:24:42;98064.03;;;26.34;24.26
10464;BME280;5279;42.048;24.638;2024-02-21T11:27:12;98062.91;;;26.77;23.36
10464;BME280;5279;42.048;24.638;2024-02-21T11:29:43;98061.38;;;26.92;22.39
10464;BME280;5279;42.048;24.638;2024-02-21T11:32:10;98063.03;;;25.58;23.54
10464;BME280;5279;42.048;24.638;2024-02-21T11:34:37;98065.97;;;24.83;24.08
10464;BME280;5279;42.048;24.638;2024-02-21T11:37:13;98055.81;;;24.47;24.99
10464;BME280;5279;42.048;24.638;2024-02-21T11:39:41;98066.63;;;22.30;27.54
10464;BME280;5279;42.048;24.638;2024-02-21T11:42:10;98063.72;;;22.45;27.52
10464;BME280;5279;42.048;24.638;2024-02-21T11:44:38;98049.44;;;23.79;26.59
10464;BME280;5279;42.048;24.638;2024-02-21T11:47:07;98049.50;;;25.69;24.52
10464;BME280;5279;42.048;24.638;2024-02-21T11:49:37;98043.50;;;27.88;22.95
10464;BME280;5279;42.048;24.638;2024-02-21T11:52:05;98044.47;;;27.65;21.65
10464;BME280;5279;42.048;24.638;2024-02-21T11:54:33;98040.66;;;27.03;21.95
10464;BME280;5279;42.048;24.638;2024-02-21T11:57:00;98031.19;;;27.05;21.91
10464;BME280;5279;42.048;24.638;2024-02-21T12:02:52;98018.84;;;28.23;20.22
10464;BME280;5279;42.048;24.638;2024-02-21T12:05:21;98026.25;;;26.44;21.91
10464;BME280;5279;42.048;24.638;2024-02-21T12:07:48;98032.84;;;26.37;22.73
10464;BME280;5279;42.048;24.638;2024-02-21T12:10:14;98029.88;;;25.37;23.67
10464;BME280;5279;42.048;24.638;2024-02-21T12:12:41;98027.88;;;26.22;23.04
10464;BME280;5279;42.048;24.638;2024-02-21T12:15:08;98022.81;;;25.66;22.42
10464;BME280;5279;42.048;24.638;2024-02-21T12:17:35;98003.81;;;25.48;23.74
10464;BME280;5279;42.048;24.638;2024-02-21T12:20:04;98015.16;;;26.04;23.66
10464;BME280;5279;42.048;24.638;2024-02-21T12:22:35;97997.25;;;27.08;21.81
10464;BME280;5279;42.048;24.638;2024-02-21T12:25:03;97990.56;;;28.62;21.13
10464;BME280;5279;42.048;24.638;2024-02-21T12:27:46;98001.94;;;28.92;20.95
10464;BME280;5279;42.048;24.638;2024-02-21T12:30:14;97996.88;;;29.01;19.98
10464;BME280;5279;42.048;24.638;2024-02-21T12:32:41;98000.13;;;29.85;19.35
10464;BME280;5279;42.048;24.638;2024-02-21T12:35:09;97991.63;;;30.81;18.29
10464;BME280;5279;42.048;24.638;2024-02-21T12:37:36;97992.72;;;30.12;19.18
10464;BME280;5279;42.048;24.638;2024-02-21T12:40:04;97980.34;;;28.69;19.72
10464;BME280;5279;42.048;24.638;2024-02-21T12:42:32;97982.66;;;28.10;20.79
10464;BME280;5279;42.048;24.638;2024-02-21T12:44:59;97964.25;;;29.54;19.40
10464;BME280;5279;42.048;24.638;2024-02-21T12:47:26;97973.00;;;30.10;18.79
10464;BME280;5279;42.048;24.638;2024-02-21T12:49:53;97956.19;;;31.79;18.06
10464;BME280;5279;42.048;24.638;2024-02-21T12:52:21;97957.63;;;31.19;18.21
10464;BME280;5279;42.048;24.638;2024-02-21T12:54:48;97963.75;;;30.43;19.09
10464;BME280;5279;42.048;24.638;2024-02-21T12:57:15;97950.81;;;30.80;18.38
10464;BME280;5279;42.048;24.638;2024-02-21T12:59:42;97958.91;;;31.64;17.60
10464;BME280;5279;42.048;24.638;2024-02-21T13:02:09;97950.06;;;33.13;17.37
10464;BME280;5279;42.048;24.638;2024-02-21T13:04:36;97955.97;;;34.28;16.72
10464;BME280;5279;42.048;24.638;2024-02-21T13:07:06;97945.22;;;33.93;16.11